Providence, Rhode Island
Current Conditions -  °F | °C
As of 12:51 PM on Wednesday 28 Jan 2015 (Local Time) from KPVD Reporting Station
Broken Clouds Broken Clouds  
Wind Chill:   Ceiling: 13000
Heat Index: 21°   Visibility: 10mi
Dew Point:   Wind: 12mph
Humidity: 50%   Direction: 330°NNW
Pressure: 29.98"   Gusts: NA
Location:  41.82°N, 71.41°W
Report Text: KPVD 281751Z 33010KT 10SM FEW040 BKN130 BKN250 M06/M15 A2998 RMK AO2 SLP153 T10611150 11061 21106 53009
Loading
Personal Weather Stations






























Interactive Weather Map New forecast layout! Learn more

10-Day Weather Forecast

Advertisements
Track Severe Weather on mobile